sensor_id;sensor_type;location;lat;lon;timestamp;pressure;altitude;pressure_sealevel;temperature;humidity
59289;BME280;45056;47.602;9.886;2024-02-23T00:00:38;91241.91;;;7.04;68.29
59289;BME280;45056;47.602;9.886;2024-02-23T00:03:08;91237.69;;;7.03;67.77
59289;BME280;45056;47.602;9.886;2024-02-23T00:05:37;91236.66;;;7.01;67.63
59289;BME280;45056;47.602;9.886;2024-02-23T00:08:06;91241.03;;;6.98;67.67
59289;BME280;45056;47.602;9.886;2024-02-23T00:10:35;91246.16;;;6.96;67.20
59289;BME280;45056;47.602;9.886;2024-02-23T00:13:03;91246.78;;;6.91;67.27
59289;BME280;45056;47.602;9.886;2024-02-23T00:15:31;91246.94;;;6.87;66.94
59289;BME280;45056;47.602;9.886;2024-02-23T00:17:59;91243.66;;;6.83;66.82
59289;BME280;45056;47.602;9.886;2024-02-23T00:20:31;91242.19;;;6.82;66.92
59289;BME280;45056;47.602;9.886;2024-02-23T00:22:59;91248.03;;;6.81;66.81
59289;BME280;45056;47.602;9.886;2024-02-23T00:25:30;91240.84;;;6.77;66.90
59289;BME280;45056;47.602;9.886;2024-02-23T00:27:58;91238.59;;;6.76;66.88
59289;BME280;45056;47.602;9.886;2024-02-23T00:30:26;91242.97;;;6.73;67.01
59289;BME280;45056;47.602;9.886;2024-02-23T00:32:54;91239.97;;;6.71;67.03
59289;BME280;45056;47.602;9.886;2024-02-23T00:35:22;91233.81;;;6.71;66.91
59289;BME280;45056;47.602;9.886;2024-02-23T00:37:51;91234.28;;;6.69;66.59
59289;BME280;45056;47.602;9.886;2024-02-23T00:40:19;91239.69;;;6.69;66.78
59289;BME280;45056;47.602;9.886;2024-02-23T00:42:47;91238.75;;;6.72;66.88
59289;BME280;45056;47.602;9.886;2024-02-23T00:45:15;91248.22;;;6.77;66.74
59289;BME280;45056;47.602;9.886;2024-02-23T00:47:43;91243.53;;;6.77;66.60
59289;BME280;45056;47.602;9.886;2024-02-23T00:50:14;91241.31;;;6.76;66.54
59289;BME280;45056;47.602;9.886;2024-02-23T00:52:42;91234.69;;;6.77;66.59
59289;BME280;45056;47.602;9.886;2024-02-23T00:55:11;91233.94;;;6.76;66.54
59289;BME280;45056;47.602;9.886;2024-02-23T00:57:39;91225.09;;;6.76;66.69
59289;BME280;45056;47.602;9.886;2024-02-23T01:00:08;91232.72;;;6.77;66.47
59289;BME280;45056;47.602;9.886;2024-02-23T01:02:37;91221.91;;;6.77;66.26
59289;BME280;45056;47.602;9.886;2024-02-23T01:05:07;91224.16;;;6.79;66.40
59289;BME280;45056;47.602;9.886;2024-02-23T01:07:35;91235.72;;;6.79;66.20
59289;BME280;45056;47.602;9.886;2024-02-23T01:10:05;91228.09;;;6.78;65.99
59289;BME280;45056;47.602;9.886;2024-02-23T01:12:35;91224.63;;;6.77;65.62
59289;BME280;45056;47.602;9.886;2024-02-23T01:15:03;91219.69;;;6.76;65.56
59289;BME280;45056;47.602;9.886;2024-02-23T01:17:32;91225.81;;;6.76;65.48
59289;BME280;45056;47.602;9.886;2024-02-23T01:20:00;91218.75;;;6.79;65.43
59289;BME280;45056;47.602;9.886;2024-02-23T01:22:28;91212.88;;;6.81;65.03
59289;BME280;45056;47.602;9.886;2024-02-23T01:24:56;91216.34;;;6.81;64.61
59289;BME280;45056;47.602;9.886;2024-02-23T01:27:24;91217.84;;;6.82;64.67
59289;BME280;45056;47.602;9.886;2024-02-23T01:29:54;91214.66;;;6.84;64.34
59289;BME280;45056;47.602;9.886;2024-02-23T01:32:22;91217.66;;;6.86;64.10
59289;BME280;45056;47.602;9.886;2024-02-23T01:34:50;91222.16;;;6.89;63.87
59289;BME280;45056;47.602;9.886;2024-02-23T01:37:18;91216.75;;;6.89;63.19
59289;BME280;45056;47.602;9.886;2024-02-23T01:39:46;91226.81;;;6.88;63.22
59289;BME280;45056;47.602;9.886;2024-02-23T01:42:14;91228.03;;;6.87;63.38
59289;BME280;45056;47.602;9.886;2024-02-23T01:44:42;91241.09;;;6.89;63.53
59289;BME280;45056;47.602;9.886;2024-02-23T01:47:11;91236.41;;;6.89;63.43
59289;BME280;45056;47.602;9.886;2024-02-23T01:49:40;91230.56;;;6.91;63.41
59289;BME280;45056;47.602;9.886;2024-02-23T01:52:09;91240.19;;;6.92;63.33
59289;BME280;45056;47.602;9.886;2024-02-23T01:54:37;91251.44;;;6.90;63.34
59289;BME280;45056;47.602;9.886;2024-02-23T01:57:07;91264.22;;;6.90;62.96
59289;BME280;45056;47.602;9.886;2024-02-23T01:59:38;91253.84;;;6.88;62.76
59289;BME280;45056;47.602;9.886;2024-02-23T02:02:07;91246.94;;;6.87;62.62
59289;BME280;45056;47.602;9.886;2024-02-23T02:04:37;91261.69;;;6.86;62.22
59289;BME280;45056;47.602;9.886;2024-02-23T02:07:06;91251.31;;;6.85;61.99
59289;BME280;45056;47.602;9.886;2024-02-23T02:09:34;91253.28;;;6.84;61.69
59289;BME280;45056;47.602;9.886;2024-02-23T02:12:03;91238.13;;;6.77;61.34
59289;BME280;45056;47.602;9.886;2024-02-23T02:14:31;91244.47;;;6.74;61.48
59289;BME280;45056;47.602;9.886;2024-02-23T02:17:00;91246.13;;;6.72;61.44
59289;BME280;45056;47.602;9.886;2024-02-23T02:19:28;91248.84;;;6.72;61.49
59289;BME280;45056;47.602;9.886;2024-02-23T02:21:57;91259.34;;;6.70;60.95
59289;BME280;45056;47.602;9.886;2024-02-23T02:24:25;91252.91;;;6.67;60.84
59289;BME280;45056;47.602;9.886;2024-02-23T02:26:53;91254.56;;;6.64;60.80
59289;BME280;45056;47.602;9.886;2024-02-23T02:29:21;91250.53;;;6.60;61.15
59289;BME280;45056;47.602;9.886;2024-02-23T02:31:49;91253.69;;;6.58;61.26
59289;BME280;45056;47.602;9.886;2024-02-23T02:34:17;91270.38;;;6.57;61.53
59289;BME280;45056;47.602;9.886;2024-02-23T02:36:45;91282.84;;;6.54;62.03
59289;BME280;45056;47.602;9.886;2024-02-23T02:39:14;91284.19;;;6.49;62.86
59289;BME280;45056;47.602;9.886;2024-02-23T02:41:42;91286.50;;;6.42;63.59
59289;BME280;45056;47.602;9.886;2024-02-23T02:44:10;91293.69;;;6.35;64.61
59289;BME280;45056;47.602;9.886;2024-02-23T02:46:40;91295.06;;;6.31;65.03
59289;BME280;45056;47.602;9.886;2024-02-23T02:49:08;91290.88;;;6.20;65.67
59289;BME280;45056;47.602;9.886;2024-02-23T02:51:36;91296.59;;;6.13;66.06
59289;BME280;45056;47.602;9.886;2024-02-23T02:54:04;91289.72;;;6.03;66.36
59289;BME280;45056;47.602;9.886;2024-02-23T02:56:33;91292.72;;;5.96;66.44
59289;BME280;45056;47.602;9.886;2024-02-23T02:59:01;91282.19;;;5.88;66.46
59289;BME280;45056;47.602;9.886;2024-02-23T03:01:29;91288.22;;;5.83;66.26
59289;BME280;45056;47.602;9.886;2024-02-23T03:03:57;91281.34;;;5.73;66.31
59289;BME280;45056;47.602;9.886;2024-02-23T03:06:25;91272.03;;;5.65;66.51
59289;BME280;45056;47.602;9.886;2024-02-23T03:08:53;91280.41;;;5.57;66.43
59289;BME280;45056;47.602;9.886;2024-02-23T03:11:21;91275.34;;;5.50;66.68
59289;BME280;45056;47.602;9.886;2024-02-23T03:13:50;91275.94;;;5.45;66.44
59289;BME280;45056;47.602;9.886;2024-02-23T03:16:18;91290.47;;;5.38;66.45
59289;BME280;45056;47.602;9.886;2024-02-23T03:18:49;91283.72;;;5.33;66.31
59289;BME280;45056;47.602;9.886;2024-02-23T03:21:18;91279.97;;;5.31;66.26
59289;BME280;45056;47.602;9.886;2024-02-23T03:23:45;91290.91;;;5.27;66.24
59289;BME280;45056;47.602;9.886;2024-02-23T03:26:13;91277.09;;;5.25;66.06
59289;BME280;45056;47.602;9.886;2024-02-23T03:28:43;91280.72;;;5.22;66.07
59289;BME280;45056;47.602;9.886;2024-02-23T03:31:12;91279.22;;;5.21;66.12
59289;BME280;45056;47.602;9.886;2024-02-23T03:33:40;91275.91;;;5.17;65.86
59289;BME280;45056;47.602;9.886;2024-02-23T03:36:08;91272.91;;;5.15;66.11
59289;BME280;45056;47.602;9.886;2024-02-23T03:38:36;91285.19;;;5.16;66.27
59289;BME280;45056;47.602;9.886;2024-02-23T03:41:04;91273.22;;;5.17;66.01
59289;BME280;45056;47.602;9.886;2024-02-23T03:43:33;91278.91;;;5.19;66.14
59289;BME280;45056;47.602;9.886;2024-02-23T03:46:01;91281.91;;;5.21;66.19
59289;BME280;45056;47.602;9.886;2024-02-23T03:48:30;91287.59;;;5.23;66.03
59289;BME280;45056;47.602;9.886;2024-02-23T03:50:58;91292.69;;;5.21;65.81
59289;BME280;45056;47.602;9.886;2024-02-23T03:53:26;91287.75;;;5.19;65.69
59289;BME280;45056;47.602;9.886;2024-02-23T03:55:54;91289.69;;;5.19;65.59
59289;BME280;45056;47.602;9.886;2024-02-23T03:58:22;91289.69;;;5.19;65.78
59289;BME280;45056;47.602;9.886;2024-02-23T04:00:51;91287.47;;;5.17;66.01
59289;BME280;45056;47.602;9.886;2024-02-23T04:03:19;91290.59;;;5.16;65.93
59289;BME280;45056;47.602;9.886;2024-02-23T04:05:49;91283.25;;;5.16;65.97
59289;BME280;45056;47.602;9.886;2024-02-23T04:08:17;91280.88;;;5.18;65.97
59289;BME280;45056;47.602;9.886;2024-02-23T04:10:45;91276.97;;;5.19;66.18
59289;BME280;45056;47.602;9.886;2024-02-23T04:13:13;91270.38;;;5.20;66.13
59289;BME280;45056;47.602;9.886;2024-02-23T04:15:41;91276.50;;;5.21;66.00
59289;BME280;45056;47.602;9.886;2024-02-23T04:18:09;91266.94;;;5.20;65.68
59289;BME280;45056;47.602;9.886;2024-02-23T04:20:37;91254.94;;;5.21;66.06
59289;BME280;45056;47.602;9.886;2024-02-23T04:23:06;91264.22;;;5.20;66.00
59289;BME280;45056;47.602;9.886;2024-02-23T04:25:34;91263.03;;;5.21;65.86
59289;BME280;45056;47.602;9.886;2024-02-23T04:28:02;91264.22;;;5.20;65.77
59289;BME280;45056;47.602;9.886;2024-02-23T04:30:31;91250.44;;;5.18;65.66
59289;BME280;45056;47.602;9.886;2024-02-23T04:32:59;91249.25;;;5.19;65.53
59289;BME280;45056;47.602;9.886;2024-02-23T04:35:27;91238.03;;;5.20;65.57
59289;BME280;45056;47.602;9.886;2024-02-23T04:37:55;91238.03;;;5.20;65.40
59289;BME280;45056;47.602;9.886;2024-02-23T04:40:24;91248.34;;;5.22;65.44
59289;BME280;45056;47.602;9.886;2024-02-23T04:42:52;91245.22;;;5.24;65.38
59289;BME280;45056;47.602;9.886;2024-02-23T04:45:20;91240.13;;;5.26;65.57
59289;BME280;45056;47.602;9.886;2024-02-23T04:47:48;91233.53;;;5.27;65.40
59289;BME280;45056;47.602;9.886;2024-02-23T04:50:15;91234.72;;;5.26;65.38
59289;BME280;45056;47.602;9.886;2024-02-23T04:52:43;91239.06;;;5.23;65.35
59289;BME280;45056;47.602;9.886;2024-02-23T04:55:11;91236.06;;;5.21;65.31
59289;BME280;45056;47.602;9.886;2024-02-23T04:57:41;91241.75;;;5.23;65.59
59289;BME280;45056;47.602;9.886;2024-02-23T05:00:09;91239.66;;;5.27;65.73
59289;BME280;45056;47.602;9.886;2024-02-23T05:02:38;91251.81;;;5.32;65.63
59289;BME280;45056;47.602;9.886;2024-02-23T05:05:07;91252.88;;;5.34;65.41
59289;BME280;45056;47.602;9.886;2024-02-23T05:07:35;91245.06;;;5.37;65.39
59289;BME280;45056;47.602;9.886;2024-02-23T05:10:03;91244.16;;;5.40;65.74
59289;BME280;45056;47.602;9.886;2024-02-23T05:12:31;91256.47;;;5.41;65.60
59289;BME280;45056;47.602;9.886;2024-02-23T05:15:01;91251.06;;;5.41;65.61
59289;BME280;45056;47.602;9.886;2024-02-23T05:17:29;91251.78;;;5.41;65.63
59289;BME280;45056;47.602;9.886;2024-02-23T05:19:57;91251.66;;;5.45;65.83
59289;BME280;45056;47.602;9.886;2024-02-23T05:22:25;91243.13;;;5.46;65.69
59289;BME280;45056;47.602;9.886;2024-02-23T05:24:53;91241.16;;;5.47;65.69
59289;BME280;45056;47.602;9.886;2024-02-23T05:27:21;91236.53;;;5.47;65.55
59289;BME280;45056;47.602;9.886;2024-02-23T05:29:49;91242.38;;;5.46;65.56
59289;BME280;45056;47.602;9.886;2024-02-23T05:32:18;91254.78;;;5.43;65.53
59289;BME280;45056;47.602;9.886;2024-02-23T05:34:46;91244.91;;;5.40;65.54
59289;BME280;45056;47.602;9.886;2024-02-23T05:37:17;91245.06;;;5.37;65.80
59289;BME280;45056;47.602;9.886;2024-02-23T05:39:46;91242.81;;;5.35;66.08
59289;BME280;45056;47.602;9.886;2024-02-23T05:42:14;91235.91;;;5.34;66.22
59289;BME280;45056;47.602;9.886;2024-02-23T05:44:43;91233.69;;;5.32;66.27
59289;BME280;45056;47.602;9.886;2024-02-23T05:47:12;91240.59;;;5.33;66.21
59289;BME280;45056;47.602;9.886;2024-02-23T05:49:41;91234.44;;;5.33;66.26
59289;BME280;45056;47.602;9.886;2024-02-23T05:52:09;91234.88;;;5.31;66.20
59289;BME280;45056;47.602;9.886;2024-02-23T05:54:37;91242.97;;;5.31;66.35
59289;BME280;45056;47.602;9.886;2024-02-23T05:57:05;91237.13;;;5.33;66.33
59289;BME280;45056;47.602;9.886;2024-02-23T05:59:33;91233.69;;;5.32;66.26
59289;BME280;45056;47.602;9.886;2024-02-23T06:02:01;91227.09;;;5.33;66.21
59289;BME280;45056;47.602;9.886;2024-02-23T06:04:29;91225.13;;;5.34;66.35
59289;BME280;45056;47.602;9.886;2024-02-23T06:06:58;91224.41;;;5.33;66.20
59289;BME280;45056;47.602;9.886;2024-02-23T06:09:26;91225.59;;;5.32;66.33
59289;BME280;45056;47.602;9.886;2024-02-23T06:11:54;91222.13;;;5.32;66.37
59289;BME280;45056;47.602;9.886;2024-02-23T06:14:22;91218.25;;;5.33;66.31
59289;BME280;45056;47.602;9.886;2024-02-23T06:16:50;91216.31;;;5.33;66.19
59289;BME280;45056;47.602;9.886;2024-02-23T06:19:18;91219.00;;;5.33;66.27
59289;BME280;45056;47.602;9.886;2024-02-23T06:21:47;91228.28;;;5.32;66.39
59289;BME280;45056;47.602;9.886;2024-02-23T06:24:17;91239.09;;;5.32;66.32
59289;BME280;45056;47.602;9.886;2024-02-23T06:26:46;91252.56;;;5.32;66.27
59289;BME280;45056;47.602;9.886;2024-02-23T06:29:15;91263.06;;;5.30;66.00
59289;BME280;45056;47.602;9.886;2024-02-23T06:31:43;91265.44;;;5.28;66.27
59289;BME280;45056;47.602;9.886;2024-02-23T06:34:15;91270.81;;;5.28;66.28
59289;BME280;45056;47.602;9.886;2024-02-23T06:36:43;91277.41;;;5.27;66.26
59289;BME280;45056;47.602;9.886;2024-02-23T06:39:11;91265.28;;;5.23;66.42
59289;BME280;45056;47.602;9.886;2024-02-23T06:41:41;91268.72;;;5.23;66.50
59289;BME280;45056;47.602;9.886;2024-02-23T06:44:09;91269.19;;;5.22;66.42
59289;BME280;45056;47.602;9.886;2024-02-23T06:46:37;91263.94;;;5.18;66.44
59289;BME280;45056;47.602;9.886;2024-02-23T06:49:05;91258.25;;;5.16;66.42
59289;BME280;45056;47.602;9.886;2024-02-23T06:51:34;91264.81;;;5.15;66.69
59289;BME280;45056;47.602;9.886;2024-02-23T06:54:02;91257.16;;;5.13;66.66
59289;BME280;45056;47.602;9.886;2024-02-23T06:56:31;91241.91;;;5.10;66.49
59289;BME280;45056;47.602;9.886;2024-02-23T06:59:00;91243.25;;;5.05;66.65
59289;BME280;45056;47.602;9.886;2024-02-23T07:01:28;91246.56;;;5.00;66.60
59289;BME280;45056;47.602;9.886;2024-02-23T07:03:57;91253.88;;;5.00;66.99
59289;BME280;45056;47.602;9.886;2024-02-23T07:06:25;91255.84;;;4.99;66.93
59289;BME280;45056;47.602;9.886;2024-02-23T07:08:55;91245.06;;;4.99;67.03
59289;BME280;45056;47.602;9.886;2024-02-23T07:11:23;91248.03;;;5.01;66.94
59289;BME280;45056;47.602;9.886;2024-02-23T07:13:51;91247.16;;;5.04;67.15
59289;BME280;45056;47.602;9.886;2024-02-23T07:16:20;91244.75;;;5.07;66.85
59289;BME280;45056;47.602;9.886;2024-02-23T07:18:48;91243.25;;;5.05;66.76
59289;BME280;45056;47.602;9.886;2024-02-23T07:21:17;91251.78;;;5.04;66.68
59289;BME280;45056;47.602;9.886;2024-02-23T07:23:45;91231.41;;;5.03;66.49
59289;BME280;45056;47.602;9.886;2024-02-23T07:26:13;91198.31;;;5.02;66.37
59289;BME280;45056;47.602;9.886;2024-02-23T07:28:41;91203.41;;;5.00;66.08
59289;BME280;45056;47.602;9.886;2024-02-23T07:31:10;91221.53;;;5.00;66.02
59289;BME280;45056;47.602;9.886;2024-02-23T07:33:39;91233.50;;;4.99;65.67
59289;BME280;45056;47.602;9.886;2024-02-23T07:36:09;91248.19;;;4.98;65.50
59289;BME280;45056;47.602;9.886;2024-02-23T07:38:41;91247.88;;;4.96;65.36
59289;BME280;45056;47.602;9.886;2024-02-23T07:41:10;91246.69;;;4.97;65.66
59289;BME280;45056;47.602;9.886;2024-02-23T07:43:39;91257.47;;;4.97;65.58
59289;BME280;45056;47.602;9.886;2024-02-23T07:46:07;91256.69;;;4.96;65.51
59289;BME280;45056;47.602;9.886;2024-02-23T07:48:35;91252.81;;;4.97;65.17
59289;BME280;45056;47.602;9.886;2024-02-23T07:51:06;91267.47;;;4.96;65.11
59289;BME280;45056;47.602;9.886;2024-02-23T07:53:34;91256.84;;;4.93;65.19
59289;BME280;45056;47.602;9.886;2024-02-23T07:56:02;91248.47;;;4.90;65.26
59289;BME280;45056;47.602;9.886;2024-02-23T07:58:31;91261.94;;;4.90;65.29
59289;BME280;45056;47.602;9.886;2024-02-23T08:00:59;91265.84;;;4.89;65.36
59289;BME280;45056;47.602;9.886;2024-02-23T08:03:27;91263.56;;;4.88;64.93
59289;BME280;45056;47.602;9.886;2024-02-23T08:05:55;91249.66;;;4.89;65.02
59289;BME280;45056;47.602;9.886;2024-02-23T08:08:24;91257.75;;;4.89;64.87
59289;BME280;45056;47.602;9.886;2024-02-23T08:10:53;91257.00;;;4.89;64.82
59289;BME280;45056;47.602;9.886;2024-02-23T08:13:21;91260.00;;;4.91;64.76
59289;BME280;45056;47.602;9.886;2024-02-23T08:15:49;91258.78;;;4.92;64.42
59289;BME280;45056;47.602;9.886;2024-02-23T08:18:17;91261.19;;;4.90;64.15
59289;BME280;45056;47.602;9.886;2024-02-23T08:20:45;91263.16;;;4.89;64.00
59289;BME280;45056;47.602;9.886;2024-02-23T08:23:13;91267.78;;;4.89;64.11
59289;BME280;45056;47.602;9.886;2024-02-23T08:25:43;91265.38;;;4.91;63.97
59289;BME280;45056;47.602;9.886;2024-02-23T08:28:11;91272.28;;;4.92;63.58
59289;BME280;45056;47.602;9.886;2024-02-23T08:30:39;91264.19;;;4.92;63.50
59289;BME280;45056;47.602;9.886;2024-02-23T08:33:07;91267.63;;;4.93;63.15
59289;BME280;45056;47.602;9.886;2024-02-23T08:35:36;91273.34;;;4.95;62.87
59289;BME280;45056;47.602;9.886;2024-02-23T08:38:04;91270.94;;;4.97;62.84
59289;BME280;45056;47.602;9.886;2024-02-23T08:40:32;91272.00;;;4.99;62.58
59289;BME280;45056;47.602;9.886;2024-02-23T08:43:01;91275.00;;;5.01;62.58
59289;BME280;45056;47.602;9.886;2024-02-23T08:45:29;91284.13;;;5.04;62.67
59289;BME280;45056;47.602;9.886;2024-02-23T08:47:57;91279.63;;;5.01;62.77
59289;BME280;45056;47.602;9.886;2024-02-23T08:50:25;91276.94;;;5.01;62.93
59289;BME280;45056;47.602;9.886;2024-02-23T08:52:53;91276.50;;;5.02;63.10
59289;BME280;45056;47.602;9.886;2024-02-23T08:55:21;91278.00;;;5.03;63.11
59289;BME280;45056;47.602;9.886;2024-02-23T08:57:50;91273.34;;;5.04;62.91
59289;BME280;45056;47.602;9.886;2024-02-23T09:00:19;91280.22;;;5.05;62.99
59289;BME280;45056;47.602;9.886;2024-02-23T09:02:47;91271.72;;;5.07;63.07
59289;BME280;45056;47.602;9.886;2024-02-23T09:05:16;91273.22;;;5.08;62.94
59289;BME280;45056;47.602;9.886;2024-02-23T09:07:44;91277.41;;;5.09;62.91
59289;BME280;45056;47.602;9.886;2024-02-23T09:10:12;91278.59;;;5.08;62.76
59289;BME280;45056;47.602;9.886;2024-02-23T09:12:40;91283.69;;;5.05;62.85
59289;BME280;45056;47.602;9.886;2024-02-23T09:15:09;91289.81;;;5.06;63.23
59289;BME280;45056;47.602;9.886;2024-02-23T09:17:41;91284.72;;;5.08;63.33
59289;BME280;45056;47.602;9.886;2024-02-23T09:20:10;91281.59;;;5.10;63.15
59289;BME280;45056;47.602;9.886;2024-02-23T09:22:39;91285.50;;;5.09;62.87
59289;BME280;45056;47.602;9.886;2024-02-23T09:25:07;91292.50;;;5.06;62.69
59289;BME280;45056;47.602;9.886;2024-02-23T09:27:35;91293.28;;;5.07;62.27
59289;BME280;45056;47.602;9.886;2024-02-23T09:30:11;91293.28;;;5.07;62.25
59289;BME280;45056;47.602;9.886;2024-02-23T09:32:42;91294.78;;;5.08;62.19
59289;BME280;45056;47.602;9.886;2024-02-23T09:35:10;91291.63;;;5.09;61.92
59289;BME280;45056;47.602;9.886;2024-02-23T09:37:38;91297.00;;;5.09;61.80
59289;BME280;45056;47.602;9.886;2024-02-23T09:40:07;91292.38;;;5.10;61.80
59289;BME280;45056;47.602;9.886;2024-02-23T09:42:36;91287.00;;;5.10;61.52
59289;BME280;45056;47.602;9.886;2024-02-23T09:45:07;91282.63;;;5.12;61.82
59289;BME280;45056;47.602;9.886;2024-02-23T09:47:41;91279.81;;;5.16;62.10
59289;BME280;45056;47.602;9.886;2024-02-23T09:50:12;91285.06;;;5.19;62.29
59289;BME280;45056;47.602;9.886;2024-02-23T09:52:41;91291.78;;;5.24;62.32
59289;BME280;45056;47.602;9.886;2024-02-23T09:55:09;91284.00;;;5.26;62.42
59289;BME280;45056;47.602;9.886;2024-02-23T09:57:37;91288.50;;;5.29;62.23
59289;BME280;45056;47.602;9.886;2024-02-23T10:00:07;91284.63;;;5.30;62.11
59289;BME280;45056;47.602;9.886;2024-02-23T10:02:37;91282.97;;;5.33;61.90
59289;BME280;45056;47.602;9.886;2024-02-23T10:05:10;91285.22;;;5.34;61.48
59289;BME280;45056;47.602;9.886;2024-02-23T10:07:39;91290.16;;;5.36;61.31
59289;BME280;45056;47.602;9.886;2024-02-23T10:10:08;91295.13;;;5.38;61.04
59289;BME280;45056;47.602;9.886;2024-02-23T10:12:37;91296.63;;;5.39;60.88
59289;BME280;45056;47.602;9.886;2024-02-23T10:15:07;91296.63;;;5.39;60.58
59289;BME280;45056;47.602;9.886;2024-02-23T10:17:34;91283.44;;;5.41;60.90
59289;BME280;45056;47.602;9.886;2024-02-23T10:20:02;91287.16;;;5.43;60.73
59289;BME280;45056;47.602;9.886;2024-02-23T10:22:32;91286.28;;;5.46;60.49
59289;BME280;45056;47.602;9.886;2024-02-23T10:25:01;91286.41;;;5.52;60.76
59289;BME280;45056;47.602;9.886;2024-02-23T10:27:29;91287.47;;;5.55;60.80
59289;BME280;45056;47.602;9.886;2024-02-23T10:29:57;91281.91;;;5.58;60.50
59289;BME280;45056;47.602;9.886;2024-02-23T10:32:29;91287.94;;;5.62;60.50
59289;BME280;45056;47.602;9.886;2024-02-23T10:35:00;91288.53;;;5.67;60.29
59289;BME280;45056;47.602;9.886;2024-02-23T10:37:34;91299.16;;;5.70;59.83
59289;BME280;45056;47.602;9.886;2024-02-23T10:40:05;91294.53;;;5.71;59.44
59289;BME280;45056;47.602;9.886;2024-02-23T10:42:38;91297.22;;;5.71;59.07
59289;BME280;45056;47.602;9.886;2024-02-23T10:45:07;91298.72;;;5.72;59.30
59289;BME280;45056;47.602;9.886;2024-02-23T10:47:37;91293.91;;;5.76;59.52
59289;BME280;45056;47.602;9.886;2024-02-23T10:50:07;91289.59;;;5.78;59.28
59289;BME280;45056;47.602;9.886;2024-02-23T10:52:39;91287.19;;;5.81;59.38
59289;BME280;45056;47.602;9.886;2024-02-23T10:55:10;91278.63;;;5.82;59.03
59289;BME280;45056;47.602;9.886;2024-02-23T10:57:38;91280.13;;;5.83;59.15
59289;BME280;45056;47.602;9.886;2024-02-23T11:00:08;91278.63;;;5.82;59.12
59289;BME280;45056;47.602;9.886;2024-02-23T11:02:41;91275.91;;;5.82;59.23
59289;BME280;45056;47.602;9.886;2024-02-23T11:05:14;91274.41;;;5.81;59.47
59289;BME280;45056;47.602;9.886;2024-02-23T11:07:46;91280.28;;;5.80;59.88
59289;BME280;45056;47.602;9.886;2024-02-23T11:10:15;91278.31;;;5.80;60.42
59289;BME280;45056;47.602;9.886;2024-02-23T11:12:44;91274.88;;;5.80;60.38
59289;BME280;45056;47.602;9.886;2024-02-23T11:15:26;91283.56;;;5.84;60.63
59289;BME280;45056;47.602;9.886;2024-02-23T11:17:54;91278.00;;;5.87;60.54
59289;BME280;45056;47.602;9.886;2024-02-23T11:20:23;91275.91;;;5.91;60.43
59289;BME280;45056;47.602;9.886;2024-02-23T11:22:53;91274.69;;;5.92;60.19
59289;BME280;45056;47.602;9.886;2024-02-23T11:25:26;91266.91;;;5.95;60.20
59289;BME280;45056;47.602;9.886;2024-02-23T11:27:54;91269.63;;;5.95;60.44
59289;BME280;45056;47.602;9.886;2024-02-23T11:30:22;91269.63;;;5.95;60.35
59289;BME280;45056;47.602;9.886;2024-02-23T11:32:59;91261.53;;;5.95;60.29
59289;BME280;45056;47.602;9.886;2024-02-23T11:35:27;91256.56;;;5.93;60.41
59289;BME280;45056;47.602;9.886;2024-02-23T11:37:57;91262.25;;;5.95;60.75
59289;BME280;45056;47.602;9.886;2024-02-23T11:40:27;91260.63;;;5.98;60.26
59289;BME280;45056;47.602;9.886;2024-02-23T11:42:56;91249.53;;;5.96;59.54
59289;BME280;45056;47.602;9.886;2024-02-23T11:45:28;91249.53;;;5.96;59.08
59289;BME280;45056;47.602;9.886;2024-02-23T11:47:58;91251.16;;;5.93;58.58
59289;BME280;45056;47.602;9.886;2024-02-23T11:50:26;91252.06;;;5.90;58.65
59289;BME280;45056;47.602;9.886;2024-02-23T11:52:54;91254.47;;;5.88;59.25
59289;BME280;45056;47.602;9.886;2024-02-23T11:55:24;91251.31;;;5.89;59.33
59289;BME280;45056;47.602;9.886;2024-02-23T11:57:53;91258.66;;;5.89;59.04
59289;BME280;45056;47.602;9.886;2024-02-23T12:00:23;91259.41;;;5.89;58.90
59289;BME280;45056;47.602;9.886;2024-02-23T12:02:51;91247.41;;;5.90;58.88
59289;BME280;45056;47.602;9.886;2024-02-23T12:05:19;91252.66;;;5.94;58.97
59289;BME280;45056;47.602;9.886;2024-02-23T12:07:47;91254.44;;;5.97;58.72
59289;BME280;45056;47.602;9.886;2024-02-23T12:10:15;91243.22;;;5.99;58.39
59289;BME280;45056;47.602;9.886;2024-02-23T12:12:45;91250.09;;;6.00;58.29
59289;BME280;45056;47.602;9.886;2024-02-23T12:15:13;91245.44;;;6.00;58.11
59289;BME280;45056;47.602;9.886;2024-02-23T12:17:47;91242.63;;;6.04;58.25
59289;BME280;45056;47.602;9.886;2024-02-23T12:20:15;91239.44;;;6.05;58.07
59289;BME280;45056;47.602;9.886;2024-02-23T12:22:43;91244.41;;;6.07;57.80
59289;BME280;45056;47.602;9.886;2024-02-23T12:25:12;91238.09;;;6.10;57.56
59289;BME280;45056;47.602;9.886;2024-02-23T12:27:42;91234.19;;;6.11;57.14
59289;BME280;45056;47.602;9.886;2024-02-23T12:30:15;91236.91;;;6.11;57.10
59289;BME280;45056;47.602;9.886;2024-02-23T12:32:44;91229.84;;;6.14;57.34
59289;BME280;45056;47.602;9.886;2024-02-23T12:35:12;91234.78;;;6.15;57.34
59289;BME280;45056;47.602;9.886;2024-02-23T12:37:40;91237.78;;;6.17;57.33
59289;BME280;45056;47.602;9.886;2024-02-23T12:40:09;91240.03;;;6.19;56.96
59289;BME280;45056;47.602;9.886;2024-02-23T12:42:37;91235.84;;;6.18;56.61
59289;BME280;45056;47.602;9.886;2024-02-23T12:45:08;91233.13;;;6.18;56.70
59289;BME280;45056;47.602;9.886;2024-02-23T12:47:36;91228.19;;;6.16;56.45
59289;BME280;45056;47.602;9.886;2024-02-23T12:50:06;91227.72;;;6.18;56.71
59289;BME280;45056;47.602;9.886;2024-02-23T12:52:36;91227.72;;;6.18;56.61
59289;BME280;45056;47.602;9.886;2024-02-23T12:55:04;91217.97;;;6.20;56.78
59289;BME280;45056;47.602;9.886;2024-02-23T12:57:33;91227.84;;;6.24;56.67
59289;BME280;45056;47.602;9.886;2024-02-23T13:00:01;91230.09;;;6.25;55.85
59289;BME280;45056;47.602;9.886;2024-02-23T13:02:30;91212.84;;;6.23;55.46
59289;BME280;45056;47.602;9.886;2024-02-23T13:04:59;91214.53;;;6.20;55.22
59289;BME280;45056;47.602;9.886;2024-02-23T13:07:27;91205.38;;;6.17;55.19
59289;BME280;45056;47.602;9.886;2024-02-23T13:09:55;91202.38;;;6.15;55.21
59289;BME280;45056;47.602;9.886;2024-02-23T13:12:23;91205.38;;;6.17;55.22
59289;BME280;45056;47.602;9.886;2024-02-23T13:14:52;91194.84;;;6.19;55.04
59289;BME280;45056;47.602;9.886;2024-02-23T13:17:19;91210.16;;;6.23;54.97